Time;durP1;ratioP1;P1;durP2;ratioP2;P2;SDS_P1;SDS_P2;PMS_P1;PMS_P2;Temp;Humidity;BMP_temperature;BMP_pressure;BME280_temperature;BME280_humidity;BME280_pressure;Samples;Min_cycle;Max_cycle;Signal;HPM_P1;HPM_P2
2023/09/19 00:00:44;;;;;;;6.22;1.60;;;;;;;;;;4970415;28;20031;-78
2023/09/19 00:03:10;;;;;;;2.88;1.00;;;;;;;;;;4965677;28;20030;-83
2023/09/19 00:05:43;;;;;;;4.75;1.40;;;;;;;;;;4987160;28;20014;-82
2023/09/19 00:08:08;;;;;;;6.72;1.48;;;;;;;;;;4965457;28;20766;-84
2023/09/19 00:10:34;;;;;;;7.25;1.50;;;;;;;;;;4983516;28;20027;-85
2023/09/19 00:13:07;;;;;;;5.38;1.70;;;;;;;;;;4977169;28;20037;-85
2023/09/19 00:15:38;;;;;;;7.18;1.70;;;;;;;;;;4992467;28;20034;-84
2023/09/19 00:18:06;;;;;;;8.95;1.85;;;;;;;;;;4972523;28;20482;-85
2023/09/19 00:20:31;;;;;;;6.75;1.98;;;;;;;;;;4989296;28;20474;-85
2023/09/19 00:23:05;;;;;;;9.82;1.88;;;;;;;;;;4974961;28;20027;-85
2023/09/19 00:25:32;;;;;;;6.90;1.80;;;;;;;;;;4970559;28;20014;-85
2023/09/19 00:27:58;;;;;;;5.55;1.55;;;;;;;;;;4977997;28;20494;-83
2023/09/19 00:30:24;;;;;;;7.55;1.67;;;;;;;;;;4985905;28;20026;-83
2023/09/19 00:32:54;;;;;;;7.18;1.75;;;;;;;;;;4970985;28;20039;-83
2023/09/19 00:35:19;;;;;;;7.50;1.80;;;;;;;;;;4966876;28;20085;-85
2023/09/19 00:37:45;;;;;;;6.90;1.60;;;;;;;;;;4984935;28;20027;-86
2023/09/19 00:40:12;;;;;;;5.68;1.50;;;;;;;;;;4989908;28;20034;-79
2023/09/19 00:42:40;;;;;;;6.85;1.67;;;;;;;;;;4983330;28;20539;-81
2023/09/19 00:45:11;;;;;;;7.28;2.13;;;;;;;;;;4967542;28;20030;-78
2023/09/19 00:47:39;;;;;;;7.68;2.10;;;;;;;;;;4969760;28;20030;-77
2023/09/19 00:50:07;;;;;;;8.30;2.05;;;;;;;;;;4971418;28;20030;-78
2023/09/19 00:52:42;;;;;;;9.60;1.98;;;;;;;;;;4977012;28;20022;-79
2023/09/19 00:55:09;;;;;;;7.63;1.83;;;;;;;;;;4971050;28;20034;-78
2023/09/19 00:57:38;;;;;;;5.28;1.40;;;;;;;;;;4969699;28;20100;-79
2023/09/19 01:00:08;;;;;;;8.02;1.95;;;;;;;;;;4977204;28;20395;-78
2023/09/19 01:02:34;;;;;;;5.95;1.58;;;;;;;;;;4973568;28;20021;-78
2023/09/19 01:05:00;;;;;;;9.27;1.88;;;;;;;;;;4972001;28;20677;-79
2023/09/19 01:07:26;;;;;;;7.43;1.70;;;;;;;;;;4988754;28;20161;-78
2023/09/19 01:09:52;;;;;;;8.00;1.90;;;;;;;;;;4984464;28;20030;-78
2023/09/19 01:12:28;;;;;;;5.70;1.50;;;;;;;;;;4990513;28;20030;-78
2023/09/19 01:15:06;;;;;;;9.48;1.70;;;;;;;;;;4986140;28;20038;-77
2023/09/19 01:17:38;;;;;;;8.30;1.80;;;;;;;;;;4966831;28;20035;-78
2023/09/19 01:20:11;;;;;;;9.73;1.65;;;;;;;;;;4971101;28;20038;-80
2023/09/19 01:23:07;;;;;;;7.35;1.80;;;;;;;;;;4968532;28;20128;-78
2023/09/19 01:26:02;;;;;;;8.48;1.92;;;;;;;;;;4965110;28;20038;-78
2023/09/19 01:28:36;;;;;;;10.40;1.60;;;;;;;;;;4991912;28;20479;-79
2023/09/19 01:31:03;;;;;;;5.28;1.45;;;;;;;;;;4966606;28;20490;-78
2023/09/19 01:33:50;;;;;;;6.60;1.40;;;;;;;;;;4986856;28;20030;-78
2023/09/19 01:36:16;;;;;;;8.55;1.40;;;;;;;;;;4968017;28;20454;-78
2023/09/19 01:38:41;;;;;;;7.72;2.05;;;;;;;;;;4990451;28;20050;-77
2023/09/19 01:41:12;;;;;;;7.20;1.55;;;;;;;;;;4982398;28;20082;-78
2023/09/19 01:43:43;;;;;;;9.23;1.95;;;;;;;;;;4981567;28;20030;-78
2023/09/19 01:46:40;;;;;;;7.95;1.48;;;;;;;;;;4980684;28;20070;-78
2023/09/19 01:49:24;;;;;;;7.65;1.80;;;;;;;;;;4988199;28;20558;-78
2023/09/19 01:52:13;;;;;;;7.10;2.05;;;;;;;;;;4983429;28;20030;-79
2023/09/19 01:54:51;;;;;;;5.78;1.52;;;;;;;;;;4965417;28;20093;-78
2023/09/19 01:57:58;;;;;;;5.30;1.75;;;;;;;;;;4984521;28;20027;-78
2023/09/19 02:00:25;;;;;;;6.00;1.60;;;;;;;;;;4961783;28;20431;-78
2023/09/19 02:02:52;;;;;;;7.45;1.73;;;;;;;;;;4986340;28;20057;-78
2023/09/19 02:05:25;;;;;;;9.30;1.92;;;;;;;;;;4983291;28;20026;-78
2023/09/19 02:07:52;;;;;;;7.95;1.52;;;;;;;;;;4990726;28;20037;-81
2023/09/19 02:10:18;;;;;;;5.22;1.30;;;;;;;;;;4973931;28;20081;-84
2023/09/19 02:12:44;;;;;;;10.82;2.30;;;;;;;;;;4968212;28;20030;-82
2023/09/19 02:15:10;;;;;;;7.40;1.77;;;;;;;;;;4970939;28;20088;-85
2023/09/19 02:17:35;;;;;;;6.90;1.65;;;;;;;;;;4963883;28;20038;-79
2023/09/19 02:20:00;;;;;;;8.30;1.58;;;;;;;;;;4967220;28;20045;-78
2023/09/19 02:22:27;;;;;;;8.65;1.98;;;;;;;;;;4967008;28;20030;-78
2023/09/19 02:24:53;;;;;;;10.48;1.52;;;;;;;;;;4980666;28;20465;-78
2023/09/19 02:27:19;;;;;;;5.90;1.52;;;;;;;;;;4968510;28;20061;-78
2023/09/19 02:29:44;;;;;;;7.22;2.08;;;;;;;;;;4977224;28;20081;-79
2023/09/19 02:32:10;;;;;;;9.32;2.00;;;;;;;;;;4989210;28;20026;-78
2023/09/19 02:34:39;;;;;;;8.18;1.58;;;;;;;;;;4968602;28;20030;-77
2023/09/19 02:37:05;;;;;;;5.47;1.73;;;;;;;;;;4982483;28;20505;-78
2023/09/19 02:39:31;;;;;;;7.97;1.60;;;;;;;;;;4983213;28;20499;-77
2023/09/19 02:41:57;;;;;;;8.30;1.70;;;;;;;;;;4962379;28;20085;-78
2023/09/19 02:44:23;;;;;;;7.30;1.80;;;;;;;;;;4965530;28;20054;-78
2023/09/19 02:46:49;;;;;;;6.15;1.70;;;;;;;;;;4984517;28;20027;-78
2023/09/19 02:49:14;;;;;;;6.03;1.40;;;;;;;;;;4990703;28;20084;-78
2023/09/19 02:51:40;;;;;;;7.28;1.40;;;;;;;;;;4963207;28;20027;-78
2023/09/19 02:54:05;;;;;;;8.13;1.63;;;;;;;;;;4987400;28;20046;-77
2023/09/19 02:56:32;;;;;;;6.45;1.40;;;;;;;;;;4982033;28;20026;-79
2023/09/19 02:58:57;;;;;;;11.10;2.00;;;;;;;;;;4965317;28;20026;-78
2023/09/19 03:01:23;;;;;;;6.50;1.60;;;;;;;;;;4984809;28;20030;-77
2023/09/19 03:03:48;;;;;;;7.10;1.73;;;;;;;;;;4991433;28;20040;-78
2023/09/19 03:06:14;;;;;;;7.13;1.55;;;;;;;;;;4964790;28;20048;-78
2023/09/19 03:08:42;;;;;;;9.93;1.85;;;;;;;;;;4986779;28;20089;-78
2023/09/19 03:11:09;;;;;;;6.10;2.22;;;;;;;;;;4983744;28;20022;-79
2023/09/19 03:13:37;;;;;;;7.10;1.75;;;;;;;;;;4966566;28;20030;-85
2023/09/19 03:16:05;;;;;;;9.73;1.80;;;;;;;;;;4984702;28;20053;-78
2023/09/19 03:18:31;;;;;;;8.20;1.50;;;;;;;;;;4990186;28;20110;-77
2023/09/19 03:20:59;;;;;;;6.72;1.42;;;;;;;;;;4959137;28;20513;-77
2023/09/19 03:23:26;;;;;;;7.90;1.63;;;;;;;;;;4992951;28;20502;-78
2023/09/19 03:25:52;;;;;;;7.78;1.50;;;;;;;;;;4976213;28;20037;-78
2023/09/19 03:28:18;;;;;;;8.15;2.20;;;;;;;;;;4967669;28;20033;-77
2023/09/19 03:30:43;;;;;;;9.70;2.30;;;;;;;;;;4970102;28;20076;-77
2023/09/19 03:33:11;;;;;;;6.68;1.85;;;;;;;;;;4983708;28;20443;-78
2023/09/19 03:35:38;;;;;;;4.85;1.55;;;;;;;;;;4966678;28;20052;-77
2023/09/19 03:38:04;;;;;;;7.53;1.73;;;;;;;;;;4982448;28;21367;-77
2023/09/19 03:40:29;;;;;;;9.20;1.35;;;;;;;;;;4982906;28;20031;-77
2023/09/19 03:42:55;;;;;;;7.20;1.75;;;;;;;;;;4988106;28;20030;-79
2023/09/19 03:45:20;;;;;;;8.13;1.83;;;;;;;;;;4983521;28;20022;-78
2023/09/19 03:47:48;;;;;;;7.38;1.88;;;;;;;;;;4967163;28;20360;-78
2023/09/19 03:50:17;;;;;;;6.07;1.95;;;;;;;;;;4970072;28;20100;-78
2023/09/19 03:52:43;;;;;;;11.43;1.75;;;;;;;;;;4973043;28;20523;-77
2023/09/19 03:55:09;;;;;;;7.28;1.40;;;;;;;;;;4974789;28;20047;-79
2023/09/19 03:57:36;;;;;;;8.27;2.22;;;;;;;;;;4987507;28;20061;-84
2023/09/19 04:00:01;;;;;;;6.93;1.63;;;;;;;;;;4963139;28;20585;-83
2023/09/19 04:02:32;;;;;;;9.13;1.42;;;;;;;;;;4989243;28;20118;-85
2023/09/19 04:04:58;;;;;;;7.38;1.30;;;;;;;;;;4989300;28;20027;-82
2023/09/19 04:07:25;;;;;;;7.18;1.23;;;;;;;;;;4987280;28;20494;-85
2023/09/19 04:09:53;;;;;;;4.88;1.25;;;;;;;;;;4971569;28;20113;-84
2023/09/19 04:12:18;;;;;;;6.15;1.60;;;;;;;;;;4987079;28;20031;-84
2023/09/19 04:14:44;;;;;;;8.48;1.52;;;;;;;;;;4991084;28;20033;-83
2023/09/19 04:17:10;;;;;;;7.50;1.33;;;;;;;;;;4987777;28;20041;-84
2023/09/19 04:19:36;;;;;;;6.70;1.55;;;;;;;;;;4987636;28;20022;-84
2023/09/19 04:22:01;;;;;;;5.78;1.52;;;;;;;;;;4980822;28;20121;-82
2023/09/19 04:24:26;;;;;;;7.47;1.80;;;;;;;;;;4981812;28;20029;-85
2023/09/19 04:26:52;;;;;;;10.70;1.83;;;;;;;;;;4964256;28;20148;-83
2023/09/19 04:29:19;;;;;;;9.60;1.80;;;;;;;;;;4968569;28;20655;-84
2023/09/19 04:31:45;;;;;;;5.78;1.30;;;;;;;;;;4958984;28;20037;-84
2023/09/19 04:34:17;;;;;;;7.85;1.58;;;;;;;;;;4961534;28;20389;-85
2023/09/19 04:36:43;;;;;;;6.47;1.55;;;;;;;;;;4962439;28;20121;-85
2023/09/19 04:39:10;;;;;;;8.25;1.70;;;;;;;;;;4982999;28;20106;-84
2023/09/19 04:41:38;;;;;;;6.85;1.48;;;;;;;;;;4978398;28;20029;-85
2023/09/19 04:44:04;;;;;;;8.50;1.65;;;;;;;;;;4985937;28;20038;-84
2023/09/19 04:46:30;;;;;;;8.25;1.60;;;;;;;;;;4980310;28;20029;-85
2023/09/19 04:48:55;;;;;;;4.35;1.50;;;;;;;;;;4983179;28;20501;-84
2023/09/19 04:51:20;;;;;;;7.32;1.20;;;;;;;;;;4966102;28;20038;-84
2023/09/19 04:53:47;;;;;;;7.70;1.60;;;;;;;;;;4985663;28;20498;-83
2023/09/19 04:56:13;;;;;;;9.82;1.40;;;;;;;;;;4967101;28;20615;-85
2023/09/19 04:58:38;;;;;;;8.98;1.90;;;;;;;;;;4998641;28;20108;-86
2023/09/19 05:01:04;;;;;;;5.80;1.50;;;;;;;;;;4959834;28;20548;-82
2023/09/19 05:03:29;;;;;;;9.02;1.70;;;;;;;;;;4984246;28;20031;-86
2023/09/19 05:05:54;;;;;;;9.02;1.75;;;;;;;;;;4966369;28;20600;-84
2023/09/19 05:08:22;;;;;;;7.15;2.15;;;;;;;;;;4971417;28;20025;-85
2023/09/19 05:10:47;;;;;;;6.22;1.50;;;;;;;;;;4968760;28;20450;-85
2023/09/19 05:13:12;;;;;;;9.15;2.17;;;;;;;;;;4984773;28;20034;-86
2023/09/19 05:15:39;;;;;;;5.28;1.30;;;;;;;;;;4983402;28;20030;-84
2023/09/19 05:18:06;;;;;;;7.05;1.70;;;;;;;;;;4971965;28;20120;-84
2023/09/19 05:20:37;;;;;;;7.40;1.40;;;;;;;;;;4991728;28;20029;-83
2023/09/19 05:23:07;;;;;;;7.72;1.55;;;;;;;;;;4978030;28;20488;-84
2023/09/19 05:25:37;;;;;;;7.15;1.77;;;;;;;;;;4972464;28;20032;-83
2023/09/19 05:28:03;;;;;;;6.63;1.38;;;;;;;;;;4988561;28;20506;-83
2023/09/19 05:30:29;;;;;;;7.20;1.30;;;;;;;;;;4960882;28;20026;-83
2023/09/19 05:32:55;;;;;;;7.25;1.58;;;;;;;;;;4966310;28;20038;-84
2023/09/19 05:35:21;;;;;;;6.22;1.45;;;;;;;;;;4978996;28;20032;-84
2023/09/19 05:37:50;;;;;;;7.53;1.48;;;;;;;;;;4987650;28;20109;-78
2023/09/19 05:40:16;;;;;;;7.25;1.38;;;;;;;;;;4983812;28;20026;-78
2023/09/19 05:42:43;;;;;;;7.15;1.50;;;;;;;;;;4987581;28;20388;-77
2023/09/19 05:45:13;;;;;;;6.15;1.40;;;;;;;;;;4985687;28;20097;-78
2023/09/19 05:47:42;;;;;;;5.50;1.23;;;;;;;;;;4985014;28;20356;-77
2023/09/19 05:50:08;;;;;;;8.75;1.70;;;;;;;;;;4985688;28;20434;-77
2023/09/19 05:52:34;;;;;;;7.57;1.55;;;;;;;;;;4972801;28;20030;-77
2023/09/19 05:55:00;;;;;;;7.70;1.50;;;;;;;;;;4985505;28;20081;-77
2023/09/19 05:57:25;;;;;;;6.35;1.15;;;;;;;;;;4987168;28;20119;-77
2023/09/19 05:59:53;;;;;;;6.47;1.40;;;;;;;;;;4987044;28;20031;-78
2023/09/19 06:02:19;;;;;;;8.30;1.70;;;;;;;;;;4960806;28;20112;-80
2023/09/19 06:04:46;;;;;;;5.40;1.35;;;;;;;;;;4968614;28;20033;-78
2023/09/19 06:07:12;;;;;;;7.45;1.80;;;;;;;;;;4969302;28;20031;-77
2023/09/19 06:09:37;;;;;;;5.13;1.45;;;;;;;;;;4963739;28;20096;-80
2023/09/19 06:12:03;;;;;;;6.65;1.50;;;;;;;;;;4979525;28;20478;-78
2023/09/19 06:14:29;;;;;;;8.38;1.75;;;;;;;;;;4985642;28;20402;-78
2023/09/19 06:16:54;;;;;;;6.95;1.67;;;;;;;;;;4969487;28;20037;-77
2023/09/19 06:19:22;;;;;;;8.65;1.75;;;;;;;;;;4968024;28;20426;-77
2023/09/19 06:21:48;;;;;;;7.65;1.55;;;;;;;;;;4969263;28;20026;-77
2023/09/19 06:24:15;;;;;;;7.15;1.50;;;;;;;;;;4975165;28;20107;-77
2023/09/19 06:26:41;;;;;;;6.55;1.58;;;;;;;;;;4972178;28;20073;-78
2023/09/19 06:29:07;;;;;;;4.35;1.20;;;;;;;;;;4960135;28;20030;-77
2023/09/19 06:31:33;;;;;;;10.57;1.80;;;;;;;;;;4984775;28;20058;-77
2023/09/19 06:33:58;;;;;;;8.35;1.40;;;;;;;;;;4994759;28;20453;-77
2023/09/19 06:36:24;;;;;;;8.82;1.42;;;;;;;;;;4963546;28;20097;-78
2023/09/19 06:38:51;;;;;;;9.77;1.65;;;;;;;;;;4960935;28;20037;-78
2023/09/19 06:41:21;;;;;;;8.75;1.70;;;;;;;;;;4965311;28;20026;-78
2023/09/19 06:43:46;;;;;;;8.40;1.65;;;;;;;;;;4965616;28;20029;-78
2023/09/19 06:46:12;;;;;;;6.85;1.58;;;;;;;;;;4963136;28;20022;-78
2023/09/19 06:48:38;;;;;;;6.63;1.52;;;;;;;;;;4986176;28;20049;-78
2023/09/19 06:51:05;;;;;;;6.85;1.67;;;;;;;;;;4963058;28;20077;-78
2023/09/19 06:53:32;;;;;;;8.30;1.65;;;;;;;;;;4966210;28;20234;-77
2023/09/19 06:55:58;;;;;;;7.50;1.48;;;;;;;;;;4975790;28;20085;-78
2023/09/19 06:58:23;;;;;;;7.90;1.77;;;;;;;;;;4953004;28;20490;-78
2023/09/19 07:00:50;;;;;;;9.65;1.75;;;;;;;;;;4958121;28;20218;-78
2023/09/19 07:03:19;;;;;;;8.75;1.98;;;;;;;;;;4980741;28;20156;-78
2023/09/19 07:05:47;;;;;;;9.02;1.42;;;;;;;;;;4964803;28;20030;-78
2023/09/19 07:08:13;;;;;;;9.73;1.77;;;;;;;;;;4956483;28;20026;-79
2023/09/19 07:10:48;;;;;;;10.02;1.65;;;;;;;;;;4971564;28;20026;-78
2023/09/19 07:13:16;;;;;;;9.57;1.75;;;;;;;;;;4962842;28;20057;-78
2023/09/19 07:15:46;;;;;;;10.38;1.70;;;;;;;;;;4964092;28;20462;-77
2023/09/19 07:18:16;;;;;;;8.75;1.85;;;;;;;;;;4965750;28;20037;-78
2023/09/19 07:20:48;;;;;;;9.32;1.73;;;;;;;;;;4974881;28;20062;-79
2023/09/19 07:23:14;;;;;;;10.10;1.73;;;;;;;;;;4981344;28;20069;-80
2023/09/19 07:25:40;;;;;;;7.43;1.60;;;;;;;;;;4987423;28;20026;-78
2023/09/19 07:28:05;;;;;;;9.85;2.05;;;;;;;;;;4983440;28;20053;-79
2023/09/19 07:30:31;;;;;;;8.30;1.80;;;;;;;;;;4976591;28;20494;-78
2023/09/19 07:32:56;;;;;;;7.18;1.42;;;;;;;;;;4958267;28;20117;-78
2023/09/19 07:35:22;;;;;;;6.22;1.42;;;;;;;;;;4952172;28;21933;-79
2023/09/19 07:37:56;;;;;;;8.68;1.58;;;;;;;;;;4954437;28;20117;-78
2023/09/19 07:40:23;;;;;;;10.50;1.85;;;;;;;;;;4964350;28;20104;-79
2023/09/19 07:42:50;;;;;;;6.20;1.50;;;;;;;;;;4982681;28;20033;-79
2023/09/19 07:45:16;;;;;;;6.13;1.50;;;;;;;;;;4965502;28;20034;-78
2023/09/19 07:47:46;;;;;;;13.20;2.13;;;;;;;;;;4959061;28;20548;-79
2023/09/19 07:50:12;;;;;;;11.80;1.95;;;;;;;;;;4962149;28;20023;-79
2023/09/19 07:52:39;;;;;;;6.43;1.35;;;;;;;;;;4960202;28;20375;-82
2023/09/19 07:55:08;;;;;;;7.72;1.80;;;;;;;;;;4974402;28;20057;-78
2023/09/19 07:57:34;;;;;;;11.73;2.33;;;;;;;;;;4956132;28;20037;-78
2023/09/19 07:59:59;;;;;;;7.05;1.70;;;;;;;;;;4975221;28;20022;-77
2023/09/19 08:02:25;;;;;;;14.35;2.65;;;;;;;;;;4965019;28;20205;-79
2023/09/19 08:04:51;;;;;;;8.90;1.52;;;;;;;;;;4972383;28;20065;-78
2023/09/19 08:07:18;;;;;;;9.07;1.83;;;;;;;;;;4965642;28;20040;-79
2023/09/19 08:09:46;;;;;;;10.07;1.88;;;;;;;;;;4984031;28;20038;-81
2023/09/19 08:12:11;;;;;;;14.65;2.22;;;;;;;;;;4982273;28;20034;-78
2023/09/19 08:14:41;;;;;;;9.75;2.38;;;;;;;;;;4978374;28;20041;-78
2023/09/19 08:17:07;;;;;;;11.10;2.17;;;;;;;;;;4976242;28;21561;-86
2023/09/19 08:19:34;;;;;;;9.18;1.70;;;;;;;;;;4976768;28;20034;-85
2023/09/19 08:22:00;;;;;;;12.13;2.00;;;;;;;;;;4981564;28;20028;-84
2023/09/19 08:24:29;;;;;;;9.05;1.77;;;;;;;;;;4960501;28;20050;-85
2023/09/19 08:26:55;;;;;;;11.10;2.03;;;;;;;;;;4986828;28;20149;-88
2023/09/19 08:29:21;;;;;;;8.18;2.20;;;;;;;;;;4964918;28;20033;-84
2023/09/19 08:31:50;;;;;;;9.50;1.60;;;;;;;;;;4971060;28;20022;-83
2023/09/19 08:34:16;;;;;;;8.57;1.75;;;;;;;;;;4973618;28;20037;-82
2023/09/19 08:36:44;;;;;;;11.55;1.80;;;;;;;;;;4983588;28;20018;-84
2023/09/19 08:39:09;;;;;;;10.25;1.75;;;;;;;;;;4990694;28;20062;-84
2023/09/19 08:41:34;;;;;;;8.98;1.90;;;;;;;;;;4977353;28;20030;-84
2023/09/19 08:44:03;;;;;;;10.52;1.60;;;;;;;;;;4986100;28;20430;-84
2023/09/19 08:46:31;;;;;;;8.65;1.80;;;;;;;;;;4974752;28;20026;-83
2023/09/19 08:49:07;;;;;;;12.50;2.20;;;;;;;;;;4993355;28;20033;-84
2023/09/19 08:51:44;;;;;;;8.10;1.40;;;;;;;;;;4987438;28;20544;-84
2023/09/19 08:54:19;;;;;;;5.82;1.58;;;;;;;;;;4977264;28;20030;-84
2023/09/19 08:56:47;;;;;;;10.93;1.83;;;;;;;;;;4989969;28;20039;-83
2023/09/19 08:59:13;;;;;;;9.23;1.80;;;;;;;;;;4984198;28;20030;-84
2023/09/19 09:01:41;;;;;;;10.50;2.03;;;;;;;;;;4969807;28;20022;-83
2023/09/19 09:04:09;;;;;;;7.20;1.65;;;;;;;;;;4977731;28;20053;-83
2023/09/19 09:06:35;;;;;;;9.27;2.13;;;;;;;;;;4992562;28;20043;-79
2023/09/19 09:09:03;;;;;;;11.90;1.83;;;;;;;;;;4969073;28;20130;-78
2023/09/19 09:11:28;;;;;;;7.32;1.48;;;;;;;;;;4994518;28;20062;-78
2023/09/19 09:13:53;;;;;;;8.88;1.50;;;;;;;;;;4987547;28;20513;-78
2023/09/19 09:16:19;;;;;;;8.02;2.08;;;;;;;;;;4983290;28;20034;-82
2023/09/19 09:18:54;;;;;;;7.43;1.58;;;;;;;;;;5001433;28;20121;-79
2023/09/19 09:21:21;;;;;;;10.05;1.80;;;;;;;;;;4988912;28;20478;-79
2023/09/19 09:23:47;;;;;;;8.95;1.90;;;;;;;;;;4974329;28;20037;-80
2023/09/19 09:26:16;;;;;;;7.93;1.60;;;;;;;;;;4988521;28;20026;-79
2023/09/19 09:28:46;;;;;;;12.68;2.15;;;;;;;;;;4967575;28;20060;-78
2023/09/19 09:31:24;;;;;;;8.82;1.83;;;;;;;;;;4973764;28;20041;-79
2023/09/19 09:33:55;;;;;;;12.55;2.10;;;;;;;;;;4967406;28;20539;-79
2023/09/19 09:36:34;;;;;;;10.45;1.88;;;;;;;;;;4982599;28;20032;-77
2023/09/19 09:39:15;;;;;;;8.18;1.92;;;;;;;;;;4994911;28;20390;-78
2023/09/19 09:41:40;;;;;;;11.45;2.53;;;;;;;;;;4988154;28;20347;-79
2023/09/19 09:44:15;;;;;;;10.25;2.08;;;;;;;;;;4988660;28;20038;-80
2023/09/19 09:52:06;;;;;;;8.02;2.00;;;;;;;;;;4990385;28;20592;-80
2023/09/19 09:54:36;;;;;;;6.28;1.45;;;;;;;;;;4986482;28;20406;-80
2023/09/19 09:57:20;;;;;;;10.25;1.77;;;;;;;;;;4980907;28;20030;-81
2023/09/19 10:02:49;;;;;;;8.30;1.52;;;;;;;;;;4945513;29;20133;-77
2023/09/19 10:08:00;;;;;;;9.15;1.88;;;;;;;;;;4985134;28;20029;-77
2023/09/19 10:11:16;;;;;;;8.05;2.08;;;;;;;;;;4978716;28;20059;-77
2023/09/19 10:13:21;;;;;;;10.63;1.80;;;;;;;;;;4975636;28;20053;-78
2023/09/19 10:15:52;;;;;;;9.20;2.08;;;;;;;;;;4984670;28;20497;-77
2023/09/19 10:18:24;;;;;;;12.20;2.47;;;;;;;;;;4992904;28;20030;-75
2023/09/19 10:20:50;;;;;;;7.13;1.48;;;;;;;;;;4965138;28;20019;-77
2023/09/19 10:23:22;;;;;;;11.73;1.83;;;;;;;;;;4978075;28;20541;-76
2023/09/19 10:25:48;;;;;;;9.50;1.85;;;;;;;;;;4985384;28;20053;-80
2023/09/19 10:28:21;;;;;;;10.88;1.95;;;;;;;;;;4985249;28;20030;-79
2023/09/19 10:30:49;;;;;;;8.38;1.80;;;;;;;;;;4968484;28;20073;-78
2023/09/19 10:33:17;;;;;;;8.13;1.60;;;;;;;;;;4990708;28;20030;-79
2023/09/19 10:35:47;;;;;;;8.93;1.90;;;;;;;;;;5003204;28;20053;-77
2023/09/19 10:38:14;;;;;;;11.00;1.70;;;;;;;;;;4987992;28;20058;-77
2023/09/19 10:40:43;;;;;;;6.82;1.80;;;;;;;;;;5000192;28;20516;-77
2023/09/19 10:43:12;;;;;;;8.05;1.58;;;;;;;;;;4976014;28;20089;-77
2023/09/19 10:45:39;;;;;;;8.80;1.55;;;;;;;;;;4973887;28;20030;-77
2023/09/19 10:48:07;;;;;;;8.00;1.45;;;;;;;;;;4978345;28;20022;-78
2023/09/19 10:50:45;;;;;;;7.97;1.70;;;;;;;;;;4990687;28;20029;-77
2023/09/19 10:53:13;;;;;;;8.02;1.38;;;;;;;;;;4977453;28;20406;-78
2023/09/19 10:55:39;;;;;;;8.68;1.60;;;;;;;;;;4985915;28;20399;-77
2023/09/19 10:58:14;;;;;;;9.15;1.90;;;;;;;;;;4971574;28;20177;-77
2023/09/19 11:00:51;;;;;;;6.63;1.42;;;;;;;;;;4989845;28;20470;-77
2023/09/19 11:03:23;;;;;;;5.50;1.40;;;;;;;;;;4989687;28;20064;-78
2023/09/19 11:06:24;;;;;;;8.45;1.60;;;;;;;;;;4994255;28;20691;-77
2023/09/19 11:11:52;;;;;;;6.70;1.50;;;;;;;;;;4993509;28;20155;-82
2023/09/19 11:14:24;;;;;;;6.55;1.38;;;;;;;;;;4994112;28;20027;-77
2023/09/19 11:17:11;;;;;;;7.03;1.52;;;;;;;;;;4988990;28;20023;-78
2023/09/19 11:22:48;;;;;;;6.35;1.25;;;;;;;;;;4984363;28;20026;-77
2023/09/19 11:25:38;;;;;;;7.57;1.30;;;;;;;;;;4986088;28;20033;-77
2023/09/19 11:28:07;;;;;;;8.25;1.60;;;;;;;;;;4974777;28;20128;-77
2023/09/19 11:30:34;;;;;;;7.47;1.50;;;;;;;;;;4973189;28;20413;-77
2023/09/19 11:33:28;;;;;;;7.35;1.30;;;;;;;;;;4982601;28;20029;-75
2023/09/19 11:36:18;;;;;;;6.07;1.20;;;;;;;;;;4990270;28;20113;-76
2023/09/19 11:38:52;;;;;;;7.20;1.50;;;;;;;;;;4991109;28;20030;-76
2023/09/19 11:41:29;;;;;;;11.18;1.58;;;;;;;;;;4965788;28;20419;-77
2023/09/19 11:44:00;;;;;;;8.52;1.40;;;;;;;;;;4973427;28;20029;-76
2023/09/19 11:46:27;;;;;;;6.97;1.30;;;;;;;;;;4970542;28;20038;-76
2023/09/19 11:48:54;;;;;;;5.85;1.40;;;;;;;;;;4989848;28;20586;-81
2023/09/19 11:51:26;;;;;;;6.75;1.40;;;;;;;;;;4985011;28;20494;-78
2023/09/19 11:53:52;;;;;;;3.88;2.03;;;;;;;;;;4986587;28;20019;-78
2023/09/19 11:56:24;;;;;;;7.35;0.90;;;;;;;;;;4989612;28;20092;-77
2023/09/19 11:58:54;;;;;;;4.38;0.93;;;;;;;;;;4990597;28;20027;-77
2023/09/19 12:01:29;;;;;;;6.40;1.13;;;;;;;;;;4979927;28;20081;-76
2023/09/19 12:03:57;;;;;;;5.53;1.05;;;;;;;;;;4969053;28;20034;-78
2023/09/19 12:06:23;;;;;;;6.35;1.20;;;;;;;;;;4975112;28;20073;-76
2023/09/19 12:08:50;;;;;;;4.32;1.35;;;;;;;;;;4975103;28;20474;-77
2023/09/19 12:11:17;;;;;;;12.57;1.15;;;;;;;;;;4974426;28;20032;-78
2023/09/19 12:13:48;;;;;;;4.32;0.90;;;;;;;;;;4974009;28;20065;-78
2023/09/19 12:16:24;;;;;;;4.53;0.88;;;;;;;;;;4969936;28;20030;-78
2023/09/19 12:18:50;;;;;;;3.90;0.90;;;;;;;;;;4969637;28;20501;-79
2023/09/19 12:21:32;;;;;;;3.75;1.05;;;;;;;;;;4983327;28;20034;-77
2023/09/19 12:24:13;;;;;;;6.00;1.33;;;;;;;;;;4970714;28;20509;-78
2023/09/19 12:26:43;;;;;;;4.45;0.90;;;;;;;;;;4975682;28;20053;-77
2023/09/19 12:29:19;;;;;;;6.95;0.95;;;;;;;;;;4972949;28;20133;-77
2023/09/19 12:31:50;;;;;;;3.42;0.75;;;;;;;;;;4953118;28;20030;-79
2023/09/19 12:34:30;;;;;;;7.53;1.00;;;;;;;;;;4983249;28;20033;-80
2023/09/19 12:37:12;;;;;;;3.42;0.70;;;;;;;;;;4965178;28;20078;-87
2023/09/19 12:39:48;;;;;;;3.97;0.93;;;;;;;;;;4978884;28;20551;-81
2023/09/19 12:42:21;;;;;;;5.25;1.10;;;;;;;;;;4960628;28;20043;-85
2023/09/19 12:44:48;;;;;;;6.18;0.80;;;;;;;;;;4965891;28;20057;-81
2023/09/19 12:47:29;;;;;;;3.47;0.85;;;;;;;;;;4963552;28;20041;-87
2023/09/19 12:50:18;;;;;;;5.82;1.10;;;;;;;;;;4968998;28;20045;-83
2023/09/19 12:52:48;;;;;;;5.40;1.00;;;;;;;;;;4975143;28;20441;-83
2023/09/19 12:55:28;;;;;;;3.67;0.90;;;;;;;;;;4965114;28;20037;-84
2023/09/19 12:58:07;;;;;;;3.58;0.80;;;;;;;;;;4968745;28;20089;-83
2023/09/19 13:00:34;;;;;;;5.70;1.08;;;;;;;;;;4966656;28;20038;-83
2023/09/19 13:03:15;;;;;;;4.53;0.98;;;;;;;;;;4964842;28;20034;-83
2023/09/19 13:06:04;;;;;;;2.20;0.80;;;;;;;;;;4967161;28;20031;-80
2023/09/19 13:08:38;;;;;;;4.32;0.80;;;;;;;;;;4960078;28;20034;-80
2023/09/19 13:11:14;;;;;;;4.60;0.70;;;;;;;;;;4963078;28;20033;-84
2023/09/19 13:13:45;;;;;;;4.78;1.02;;;;;;;;;;4967332;28;20022;-82
2023/09/19 13:16:14;;;;;;;7.25;0.80;;;;;;;;;;4970341;28;20501;-81
2023/09/19 13:18:47;;;;;;;2.53;0.80;;;;;;;;;;4969654;28;20113;-81
2023/09/19 13:21:22;;;;;;;2.88;0.90;;;;;;;;;;4975919;28;20036;-83
2023/09/19 13:24:25;;;;;;;6.20;0.90;;;;;;;;;;4970355;28;20046;-82
2023/09/19 13:26:52;;;;;;;4.18;0.80;;;;;;;;;;4971238;28;20030;-82
2023/09/19 13:29:18;;;;;;;4.07;0.88;;;;;;;;;;4985616;28;20041;-84
2023/09/19 13:31:52;;;;;;;2.75;0.85;;;;;;;;;;4963444;28;20038;-80
2023/09/19 13:34:21;;;;;;;4.25;0.98;;;;;;;;;;4960792;28;20019;-80
2023/09/19 13:36:48;;;;;;;2.83;0.70;;;;;;;;;;4984307;28;20530;-80
2023/09/19 13:39:16;;;;;;;4.85;0.93;;;;;;;;;;4966673;28;20676;-80
2023/09/19 13:41:47;;;;;;;3.13;0.60;;;;;;;;;;4983028;28;20034;-84
2023/09/19 13:44:12;;;;;;;2.65;0.80;;;;;;;;;;4963075;28;20647;-82
2023/09/19 13:46:38;;;;;;;4.78;0.93;;;;;;;;;;4982321;28;20019;-79
2023/09/19 13:49:03;;;;;;;2.60;0.68;;;;;;;;;;4972405;28;20029;-80
2023/09/19 13:51:31;;;;;;;3.63;0.73;;;;;;;;;;4969300;28;20038;-81
2023/09/19 13:53:56;;;;;;;5.15;0.80;;;;;;;;;;4981055;28;20030;-79
2023/09/19 13:56:21;;;;;;;3.03;0.95;;;;;;;;;;4979588;28;20045;-80
2023/09/19 13:58:47;;;;;;;5.15;0.90;;;;;;;;;;4989003;28;20092;-81
2023/09/19 14:01:12;;;;;;;3.78;0.70;;;;;;;;;;4969172;28;20057;-83
2023/09/19 14:03:40;;;;;;;9.77;0.85;;;;;;;;;;4981360;28;20038;-80
2023/09/19 14:06:06;;;;;;;4.57;0.98;;;;;;;;;;4984806;28;20423;-80
2023/09/19 14:08:33;;;;;;;3.00;0.75;;;;;;;;;;4955015;28;20046;-81
2023/09/19 14:10:59;;;;;;;2.47;0.82;;;;;;;;;;4962235;28;20041;-80
2023/09/19 14:13:25;;;;;;;3.53;0.90;;;;;;;;;;4958876;28;20042;-81
2023/09/19 14:15:50;;;;;;;4.80;1.35;;;;;;;;;;4959710;28;20368;-79
2023/09/19 14:18:16;;;;;;;3.88;0.80;;;;;;;;;;4985974;28;20029;-84
2023/09/19 14:20:41;;;;;;;5.53;1.23;;;;;;;;;;4960038;28;20049;-84
2023/09/19 14:23:07;;;;;;;3.53;0.80;;;;;;;;;;4984383;28;20168;-83
2023/09/19 14:25:34;;;;;;;6.72;0.80;;;;;;;;;;4985165;28;20023;-85
2023/09/19 14:28:00;;;;;;;4.65;0.90;;;;;;;;;;4964658;28;20030;-84
2023/09/19 14:30:26;;;;;;;3.45;0.98;;;;;;;;;;4966660;28;20368;-85
2023/09/19 14:32:51;;;;;;;5.10;1.00;;;;;;;;;;4952220;28;20030;-83
2023/09/19 14:35:17;;;;;;;3.53;0.80;;;;;;;;;;4972737;28;20060;-84
2023/09/19 14:37:42;;;;;;;6.05;1.00;;;;;;;;;;4983717;28;20038;-84
2023/09/19 14:40:09;;;;;;;3.83;0.90;;;;;;;;;;4966213;28;20026;-84
2023/09/19 14:42:38;;;;;;;6.00;1.13;;;;;;;;;;4973196;28;20055;-84
2023/09/19 14:45:05;;;;;;;5.47;1.00;;;;;;;;;;4980090;28;20052;-84
2023/09/19 14:47:33;;;;;;;5.72;1.10;;;;;;;;;;4963119;28;20122;-84
2023/09/19 14:50:06;;;;;;;4.25;0.90;;;;;;;;;;4963533;28;20104;-83
2023/09/19 14:52:32;;;;;;;4.55;1.17;;;;;;;;;;4964932;28;20040;-84
2023/09/19 14:54:57;;;;;;;4.22;1.13;;;;;;;;;;4982627;28;20093;-84
2023/09/19 14:57:24;;;;;;;2.65;0.80;;;;;;;;;;4984374;28;20482;-84
2023/09/19 14:59:50;;;;;;;8.48;1.30;;;;;;;;;;4962904;28;20022;-82
2023/09/19 15:02:16;;;;;;;3.70;1.00;;;;;;;;;;4961438;28;20498;-84
2023/09/19 15:04:46;;;;;;;4.88;1.00;;;;;;;;;;4979155;28;20990;-84
2023/09/19 15:07:15;;;;;;;4.95;1.00;;;;;;;;;;4970127;28;20030;-84
2023/09/19 15:09:41;;;;;;;5.03;0.98;;;;;;;;;;4988004;28;20429;-84